createdAt,value
2022-09-01T00:01:27.290Z,19.55
2022-09-01T00:04:03.168Z,19.53
2022-09-01T00:06:32.827Z,19.53
2022-09-01T00:09:02.675Z,19.50
2022-09-01T00:11:31.254Z,19.43
2022-09-01T00:13:59.815Z,19.41
2022-09-01T00:16:27.541Z,19.39
2022-09-01T00:18:56.650Z,19.40
2022-09-01T00:21:26.761Z,19.37
2022-09-01T00:23:54.711Z,19.35
2022-09-01T00:26:22.693Z,19.33
2022-09-01T00:28:51.197Z,19.32
2022-09-01T00:31:20.077Z,19.31
2022-09-01T00:33:48.172Z,19.29
2022-09-01T00:36:18.037Z,19.26
2022-09-01T00:38:46.180Z,19.25
2022-09-01T00:41:14.329Z,19.24
2022-09-01T00:43:46.351Z,19.22
2022-09-01T00:46:18.390Z,19.20
2022-09-01T00:48:49.520Z,19.17
2022-09-01T00:51:18.874Z,19.15
2022-09-01T00:53:46.856Z,19.18
2022-09-01T00:56:15.095Z,19.15
2022-09-01T00:58:43.532Z,19.20
2022-09-01T01:01:12.118Z,19.17
2022-09-01T01:03:42.696Z,19.17
2022-09-01T01:06:10.559Z,19.15
2022-09-01T01:08:41.814Z,19.16
2022-09-01T01:11:17.708Z,19.13
2022-09-01T01:13:51.070Z,19.11
2022-09-01T01:16:19.625Z,19.09
2022-09-01T01:18:47.354Z,19.09
2022-09-01T01:21:37.505Z,19.05
2022-09-01T01:24:10.632Z,19.01
2022-09-01T01:26:39.876Z,18.93
2022-09-01T01:29:09.893Z,18.94
2022-09-01T01:31:37.772Z,18.92
2022-09-01T01:34:07.907Z,18.88
2022-09-01T01:36:38.952Z,18.83
2022-09-01T01:39:08.906Z,18.82
2022-09-01T01:41:40.937Z,18.80
2022-09-01T01:44:09.551Z,18.80
2022-09-01T01:46:40.242Z,18.77
2022-09-01T01:49:07.825Z,18.77
2022-09-01T01:51:36.984Z,18.77
2022-09-01T01:54:05.569Z,18.75
2022-09-01T01:56:37.955Z,18.75
2022-09-01T01:59:07.186Z,18.72
2022-09-01T02:01:36.834Z,18.71
2022-09-01T02:04:05.701Z,18.68
2022-09-01T02:06:35.463Z,18.66
2022-09-01T02:09:03.521Z,18.64
2022-09-01T02:11:33.803Z,18.58
2022-09-01T02:14:01.715Z,18.59
2022-09-01T02:16:32.860Z,18.59
2022-09-01T02:19:01.755Z,18.56
2022-09-01T02:21:29.732Z,18.54
2022-09-01T02:24:01.067Z,18.52
2022-09-01T02:26:32.165Z,18.51
2022-09-01T02:29:03.233Z,18.50
2022-09-01T02:31:32.952Z,18.48
2022-09-01T02:34:01.055Z,18.48
2022-09-01T02:36:28.857Z,18.48
2022-09-01T02:38:57.008Z,18.47
2022-09-01T02:41:29.025Z,18.44
2022-09-01T02:43:56.899Z,18.43
2022-09-01T02:46:24.923Z,18.40
2022-09-01T02:48:54.547Z,18.39
2022-09-01T02:51:25.539Z,18.33
2022-09-01T02:53:53.668Z,18.35
2022-09-01T02:56:23.917Z,18.32
2022-09-01T02:58:53.753Z,18.28
2022-09-01T03:01:24.875Z,18.26
2022-09-01T03:03:56.396Z,18.24
2022-09-01T03:06:24.937Z,18.19
2022-09-01T03:08:53.513Z,18.17
2022-09-01T03:11:21.506Z,18.13
2022-09-01T03:13:49.078Z,18.09
2022-09-01T03:16:17.127Z,18.08
2022-09-01T03:18:45.013Z,18.05
2022-09-01T03:21:17.665Z,18.04
2022-09-01T03:23:45.961Z,18.04
2022-09-01T03:26:13.932Z,18.01
2022-09-01T03:28:41.733Z,18.00
2022-09-01T03:31:09.922Z,17.98
2022-09-01T03:33:37.837Z,17.94
2022-09-01T03:36:15.156Z,17.92
2022-09-01T03:38:44.853Z,17.89
2022-09-01T03:41:13.136Z,17.88
2022-09-01T03:43:47.083Z,17.84
2022-09-01T03:46:20.127Z,17.82
2022-09-01T03:48:50.856Z,17.78
2022-09-01T03:51:20.640Z,17.75
2022-09-01T03:53:50.412Z,17.71
2022-09-01T03:56:18.078Z,17.69
2022-09-01T03:58:47.247Z,17.67
2022-09-01T04:01:16.087Z,17.61
2022-09-01T04:03:45.215Z,17.57
2022-09-01T04:06:13.626Z,17.56
2022-09-01T04:08:41.251Z,17.54
2022-09-01T04:11:16.436Z,17.55
2022-09-01T04:13:44.163Z,17.53
2022-09-01T04:16:33.536Z,17.50
2022-09-01T04:19:01.118Z,17.51
2022-09-01T04:21:30.373Z,17.50
2022-09-01T04:24:05.378Z,17.51
2022-09-01T04:26:34.320Z,17.50
2022-09-01T04:29:02.248Z,17.48
2022-09-01T04:31:31.598Z,17.47
2022-09-01T04:33:59.304Z,17.45
2022-09-01T04:36:30.707Z,17.39
2022-09-01T04:39:00.686Z,17.38
2022-09-01T04:41:31.472Z,17.35
2022-09-01T04:44:04.696Z,17.37
2022-09-01T04:46:35.662Z,17.36
2022-09-01T04:49:06.379Z,17.34
2022-09-01T04:51:34.022Z,17.30
2022-09-01T04:54:03.639Z,17.29
2022-09-01T04:56:36.221Z,17.29
2022-09-01T04:59:07.068Z,17.27
2022-09-01T05:01:43.177Z,17.28
2022-09-01T05:04:12.678Z,17.28
2022-09-01T05:06:42.869Z,17.26
2022-09-01T05:09:11.733Z,17.27
2022-09-01T05:11:39.830Z,17.27
2022-09-01T05:14:08.962Z,17.27
2022-09-01T05:16:37.807Z,17.26
2022-09-01T05:19:06.381Z,17.25
2022-09-01T05:21:34.954Z,17.23
2022-09-01T05:24:05.028Z,17.26
2022-09-01T05:26:33.950Z,17.27
2022-09-01T05:29:03.484Z,17.28
2022-09-01T05:31:38.089Z,17.27
2022-09-01T05:34:09.554Z,17.27
2022-09-01T05:36:39.516Z,17.21
2022-09-01T05:39:12.192Z,17.28
2022-09-01T05:41:41.089Z,17.28
2022-09-01T05:44:09.196Z,17.29
2022-09-01T05:46:39.914Z,17.31
2022-09-01T05:49:09.196Z,17.33
2022-09-01T05:51:45.667Z,17.36
2022-09-01T05:54:15.165Z,17.38
2022-09-01T05:56:44.581Z,17.38
2022-09-01T05:59:28.792Z,17.40
2022-09-01T06:01:57.961Z,17.41
2022-09-01T06:04:26.816Z,17.43
2022-09-01T06:07:06.206Z,17.42
2022-09-01T06:09:38.130Z,17.47
2022-09-01T06:12:06.597Z,17.50
2022-09-01T06:14:34.375Z,17.51
2022-09-01T06:17:03.721Z,17.58
2022-09-01T06:19:36.920Z,17.60
2022-09-01T06:22:05.573Z,17.64
2022-09-01T06:24:33.275Z,17.62
2022-09-01T06:27:01.135Z,17.60
2022-09-01T06:29:31.275Z,17.66
2022-09-01T06:32:02.277Z,17.72
2022-09-01T06:34:36.305Z,17.76
2022-09-01T06:37:03.922Z,17.80
2022-09-01T06:39:31.730Z,17.87
2022-09-01T06:42:00.937Z,17.93
2022-09-01T06:44:30.784Z,17.94
2022-09-01T06:46:59.858Z,17.96
2022-09-01T06:49:32.451Z,17.98
2022-09-01T06:52:02.780Z,18.04
2022-09-01T06:54:34.244Z,18.08
2022-09-01T06:58:03.427Z,18.12
2022-09-01T06:59:52.558Z,18.16
2022-09-01T07:02:24.455Z,18.24
2022-09-01T07:04:54.330Z,18.29
2022-09-01T07:10:22.935Z,18.44
2022-09-01T07:13:06.504Z,18.51
2022-09-01T07:18:25.175Z,18.61
2022-09-01T07:21:35.801Z,18.68
2022-09-01T07:24:07.855Z,18.75
2022-09-01T07:26:31.327Z,18.82
2022-09-01T07:29:04.319Z,18.88
2022-09-01T07:34:41.675Z,18.99
2022-09-01T07:38:48.029Z,19.06
2022-09-01T07:45:30.804Z,19.30
2022-09-01T07:48:03.577Z,19.36
2022-09-01T07:51:33.978Z,19.40
2022-09-01T07:53:22.680Z,19.49
2022-09-01T07:55:53.185Z,19.58
2022-09-01T07:58:23.143Z,19.66
2022-09-01T08:00:51.329Z,19.76
2022-09-01T08:03:21.146Z,19.88
2022-09-01T08:05:53.662Z,19.95
2022-09-01T08:08:26.235Z,20.05
2022-09-01T08:11:05.115Z,20.10
2022-09-01T08:13:38.782Z,20.16
2022-09-01T08:16:16.822Z,20.23
2022-09-01T08:18:48.495Z,20.29
2022-09-01T08:21:17.628Z,20.38
2022-09-01T08:23:45.178Z,20.49
2022-09-01T08:26:16.465Z,20.58
2022-09-01T08:28:54.349Z,20.66
2022-09-01T08:31:23.409Z,20.76
2022-09-01T08:33:51.755Z,20.81
2022-09-01T08:36:23.796Z,20.88
2022-09-01T08:38:53.125Z,20.98
2022-09-01T08:41:35.522Z,21.06
2022-09-01T08:44:11.245Z,21.14
2022-09-01T08:46:41.373Z,21.21
2022-09-01T08:49:29.607Z,20.90
2022-09-01T08:52:01.724Z,20.72
2022-09-01T08:54:33.985Z,20.72
2022-09-01T08:57:08.196Z,20.66
2022-09-01T08:59:35.700Z,20.39
2022-09-01T09:02:06.643Z,20.27
2022-09-01T09:04:50.460Z,20.37
2022-09-01T09:07:20.239Z,20.29
2022-09-01T09:09:54.159Z,20.44
2022-09-01T09:12:48.611Z,20.58
2022-09-01T09:15:22.129Z,20.69
2022-09-01T09:17:59.873Z,20.79
2022-09-01T09:20:28.884Z,20.88
2022-09-01T09:22:59.633Z,21.00
2022-09-01T09:25:29.664Z,21.01
2022-09-01T09:28:01.158Z,21.14
2022-09-01T09:30:31.374Z,21.68
2022-09-01T09:35:51.741Z,21.43
2022-09-01T09:38:30.253Z,21.48
2022-09-01T09:41:17.012Z,21.51
2022-09-01T09:43:49.640Z,21.56
2022-09-01T09:46:26.901Z,21.63
2022-09-01T09:49:14.734Z,21.69
2022-09-01T09:51:44.254Z,21.74
2022-09-01T09:54:14.926Z,21.77
2022-09-01T09:56:44.466Z,21.78
2022-09-01T09:59:45.862Z,21.80
2022-09-01T10:02:18.969Z,21.81
2022-09-01T10:04:55.625Z,21.86
2022-09-01T10:07:26.546Z,21.96
2022-09-01T10:09:55.686Z,22.01
2022-09-01T10:12:24.749Z,21.96
2022-09-01T10:14:55.789Z,21.95
2022-09-01T10:17:29.955Z,21.96
2022-09-01T10:20:04.678Z,21.95
2022-09-01T10:22:33.544Z,21.99
2022-09-01T10:25:01.787Z,22.07
2022-09-01T10:27:33.889Z,22.16
2022-09-01T10:30:19.322Z,22.32
2022-09-01T10:32:55.384Z,22.37
2022-09-01T10:35:26.810Z,22.47
2022-09-01T10:37:55.904Z,22.62
2022-09-01T10:40:49.239Z,22.65
2022-09-01T10:43:37.468Z,22.74
2022-09-01T10:46:50.855Z,22.74
2022-09-01T10:49:58.766Z,22.64
2022-09-01T10:52:56.266Z,22.53
2022-09-01T10:55:26.590Z,22.46
2022-09-01T11:01:11.273Z,22.52
2022-09-01T11:04:00.640Z,22.70
2022-09-01T11:07:12.246Z,22.80
2022-09-01T11:09:43.030Z,23.00
2022-09-01T11:12:29.278Z,23.15
2022-09-01T11:14:59.647Z,23.16
2022-09-01T11:17:28.804Z,23.09
2022-09-01T11:20:00.135Z,23.18
2022-09-01T11:22:31.041Z,23.32
2022-09-01T11:25:38.702Z,23.43
2022-09-01T11:28:12.030Z,23.60
2022-09-01T11:30:52.006Z,23.70
2022-09-01T11:33:40.171Z,23.80
2022-09-01T11:36:13.393Z,23.89
2022-09-01T11:38:47.467Z,23.93
2022-09-01T11:41:24.437Z,23.81
2022-09-01T11:43:56.487Z,23.71
2022-09-01T11:46:27.520Z,23.65
2022-09-01T11:48:55.556Z,23.60
2022-09-01T11:51:23.174Z,23.60
2022-09-01T11:53:51.611Z,23.59
2022-09-01T11:56:22.903Z,23.66
2022-09-01T11:58:51.950Z,23.78
2022-09-01T12:01:21.433Z,23.93
2022-09-01T12:03:51.241Z,24.08
2022-09-01T12:06:24.994Z,24.23
2022-09-01T12:08:56.354Z,24.34
2022-09-01T12:11:30.225Z,24.47
2022-09-01T12:14:02.075Z,24.53
2022-09-01T12:16:34.761Z,24.55
2022-09-01T12:19:02.648Z,24.53
2022-09-01T12:21:32.464Z,24.50
2022-09-01T12:24:13.602Z,24.44
2022-09-01T12:26:41.801Z,24.34
2022-09-01T12:29:11.265Z,24.21
2022-09-01T12:31:41.273Z,24.13
2022-09-01T12:34:26.011Z,24.13
2022-09-01T12:37:05.209Z,24.14
2022-09-01T12:39:35.334Z,24.12
2022-09-01T12:42:06.665Z,24.16
2022-09-01T12:44:44.534Z,24.16
2022-09-01T12:47:14.838Z,24.21
2022-09-01T12:49:50.841Z,24.32
2022-09-01T12:52:26.856Z,24.55
2022-09-01T12:55:09.966Z,24.65
2022-09-01T12:57:39.654Z,24.78
2022-09-01T13:00:20.311Z,24.96
2022-09-01T13:02:49.701Z,25.07
2022-09-01T13:05:25.918Z,24.98
2022-09-01T13:07:58.483Z,24.85
2022-09-01T13:10:28.137Z,24.85
2022-09-01T13:12:57.828Z,24.85
2022-09-01T13:15:27.957Z,24.89
2022-09-01T13:17:55.560Z,24.90
2022-09-01T13:20:23.179Z,24.90
2022-09-01T13:22:51.327Z,24.96
2022-09-01T13:25:20.549Z,24.92
2022-09-01T13:27:48.729Z,24.83
2022-09-01T13:30:18.389Z,24.70
2022-09-01T13:35:35.703Z,24.62
2022-09-01T13:38:03.323Z,24.75
2022-09-01T13:40:32.086Z,24.82
2022-09-01T13:42:59.795Z,24.97
2022-09-01T13:45:27.621Z,25.12
2022-09-01T13:53:32.599Z,24.99
2022-09-01T13:56:00.349Z,24.83
2022-09-01T13:58:28.217Z,24.64
2022-09-01T14:00:56.334Z,24.47
2022-09-01T14:03:25.382Z,24.36
2022-09-01T14:05:53.000Z,24.33
2022-09-01T14:08:22.582Z,24.21
2022-09-01T14:10:52.838Z,24.12
2022-09-01T14:13:21.665Z,24.13
2022-09-01T14:15:49.602Z,24.22
2022-09-01T14:18:17.883Z,24.34
2022-09-01T14:20:48.590Z,24.37
2022-09-01T14:23:17.022Z,24.33
2022-09-01T14:25:45.481Z,24.31
2022-09-01T14:28:13.914Z,24.33
2022-09-01T14:30:44.473Z,24.36
2022-09-01T14:33:13.227Z,24.45
2022-09-01T14:35:42.436Z,24.53
2022-09-01T14:38:13.751Z,24.56
2022-09-01T14:40:42.215Z,24.56
2022-09-01T14:43:14.150Z,24.51
2022-09-01T14:45:48.221Z,24.44
2022-09-01T14:48:17.016Z,24.35
2022-09-01T14:50:48.714Z,24.33
2022-09-01T14:53:19.027Z,24.40
2022-09-01T14:55:47.012Z,24.51
2022-09-01T14:58:14.609Z,24.64
2022-09-01T15:00:42.902Z,24.76
2022-09-01T15:03:10.751Z,24.82
2022-09-01T15:08:17.699Z,24.90
2022-09-01T15:10:45.721Z,24.93
2022-09-01T15:13:13.827Z,24.97
2022-09-01T15:15:41.856Z,24.94
2022-09-01T15:18:10.709Z,24.91
2022-09-01T15:20:47.401Z,24.89
2022-09-01T15:23:19.213Z,24.90
2022-09-01T15:25:47.346Z,24.90
2022-09-01T15:28:15.547Z,24.91
2022-09-01T15:30:44.031Z,24.88
2022-09-01T15:33:15.362Z,24.86
2022-09-01T15:35:44.140Z,24.90
2022-09-01T15:38:12.386Z,24.89
2022-09-01T15:40:57.013Z,24.85
2022-09-01T15:43:27.725Z,24.78
2022-09-01T15:45:55.608Z,24.70
2022-09-01T15:48:23.324Z,24.60
2022-09-01T15:50:50.983Z,24.56
2022-09-01T15:53:19.316Z,24.51
2022-09-01T15:55:49.622Z,24.46
2022-09-01T15:58:18.794Z,24.40
2022-09-01T16:00:47.032Z,24.33
2022-09-01T16:03:14.730Z,24.30
2022-09-01T16:05:42.642Z,24.27
2022-09-01T16:08:11.635Z,24.28
2022-09-01T16:10:42.193Z,24.29
2022-09-01T16:13:12.982Z,24.29
2022-09-01T16:15:44.407Z,24.26
2022-09-01T16:18:26.534Z,24.28
2022-09-01T16:20:58.163Z,24.21
2022-09-01T16:23:32.100Z,24.19
2022-09-01T16:26:00.370Z,24.14
2022-09-01T16:28:31.706Z,24.10
2022-09-01T16:31:03.625Z,24.08
2022-09-01T16:33:33.306Z,24.08
2022-09-01T16:36:17.150Z,24.06
2022-09-01T16:38:49.120Z,24.01
2022-09-01T16:41:36.101Z,23.99
2022-09-01T16:44:16.784Z,23.97
2022-09-01T16:46:50.253Z,23.95
2022-09-01T16:49:23.280Z,23.93
2022-09-01T16:51:56.875Z,23.91
2022-09-01T16:54:29.102Z,23.90
2022-09-01T16:57:02.103Z,23.89
2022-09-01T16:59:36.124Z,23.87
2022-09-01T17:02:13.034Z,23.83
2022-09-01T17:04:45.417Z,23.79
2022-09-01T17:07:16.030Z,23.76
2022-09-01T17:09:45.596Z,23.73
2022-09-01T17:12:27.503Z,23.72
2022-09-01T17:14:59.470Z,23.66
2022-09-01T17:17:35.116Z,23.65
2022-09-01T17:20:05.783Z,23.61
2022-09-01T17:22:33.984Z,23.58
2022-09-01T17:25:04.991Z,23.55
2022-09-01T17:27:35.138Z,23.51
2022-09-01T17:30:07.092Z,23.49
2022-09-01T17:32:52.829Z,23.47
2022-09-01T17:35:24.876Z,23.40
2022-09-01T17:38:03.802Z,23.35
2022-09-01T17:40:45.821Z,23.29
2022-09-01T17:43:18.180Z,23.26
2022-09-01T17:45:52.487Z,23.20
2022-09-01T17:48:23.292Z,23.16
2022-09-01T17:51:02.092Z,23.12
2022-09-01T17:53:36.939Z,23.07
2022-09-01T17:56:09.237Z,23.02
2022-09-01T17:58:48.485Z,23.00
2022-09-01T18:01:23.599Z,22.95
2022-09-01T18:04:14.076Z,22.92
2022-09-01T18:06:48.229Z,22.86
2022-09-01T18:09:18.649Z,22.82
2022-09-01T18:11:50.870Z,22.80
2022-09-01T18:14:22.759Z,22.75
2022-09-01T18:16:59.483Z,22.71
2022-09-01T18:19:33.441Z,22.68
2022-09-01T18:22:02.803Z,22.66
2022-09-01T18:24:35.408Z,22.61
2022-09-01T18:27:03.223Z,22.56
2022-09-01T18:29:31.949Z,22.53
2022-09-01T18:32:29.968Z,22.47
2022-09-01T18:35:17.505Z,22.45
2022-09-01T18:37:54.298Z,22.41
2022-09-01T18:40:27.364Z,22.39
2022-09-01T18:43:01.597Z,22.36
2022-09-01T18:45:35.809Z,22.32
2022-09-01T18:48:16.570Z,22.30
2022-09-01T18:50:48.357Z,22.24
2022-09-01T18:53:28.108Z,22.19
2022-09-01T18:55:59.520Z,22.17
2022-09-01T18:58:38.450Z,22.14
2022-09-01T19:01:08.050Z,22.10
2022-09-01T19:03:42.286Z,22.07
2022-09-01T19:07:56.186Z,21.99
2022-09-01T19:10:26.286Z,21.95
2022-09-01T19:12:57.805Z,21.93
2022-09-01T19:15:31.334Z,21.89
2022-09-01T19:18:13.050Z,21.87
2022-09-01T19:20:46.284Z,21.81
2022-09-01T19:23:20.260Z,21.78
2022-09-01T19:25:48.001Z,21.73
2022-09-01T19:28:21.463Z,21.73
2022-09-01T19:30:52.447Z,21.71
2022-09-01T19:33:25.268Z,21.67
2022-09-01T19:35:56.880Z,21.63
2022-09-01T19:38:28.903Z,21.57
2022-09-01T19:41:02.036Z,21.55
2022-09-01T19:43:30.495Z,21.54
2022-09-01T19:46:06.076Z,21.53
2022-09-01T19:48:36.709Z,21.49
2022-09-01T19:51:07.307Z,21.48
2022-09-01T19:53:42.174Z,21.46
2022-09-01T19:56:13.289Z,21.44
2022-09-01T19:58:47.697Z,21.41
2022-09-01T20:01:17.876Z,21.38
2022-09-01T20:03:48.654Z,21.37
2022-09-01T20:06:20.230Z,21.35
2022-09-01T20:08:53.602Z,21.33
2022-09-01T20:11:27.697Z,21.29
2022-09-01T20:14:08.030Z,21.26
2022-09-01T20:16:40.121Z,21.25
2022-09-01T20:19:11.396Z,21.24
2022-09-01T20:21:43.600Z,21.20
2022-09-01T20:24:18.918Z,21.20
2022-09-01T20:26:52.412Z,21.15
2022-09-01T20:29:26.010Z,21.16
2022-09-01T20:31:59.969Z,21.15
2022-09-01T20:34:30.341Z,21.08
2022-09-01T20:37:03.297Z,21.09
2022-09-01T20:39:55.942Z,21.08
2022-09-01T20:42:32.192Z,21.04
2022-09-01T20:45:00.161Z,20.84
2022-09-01T20:47:29.582Z,20.93
2022-09-01T20:49:59.013Z,20.94
2022-09-01T20:52:31.307Z,20.93
2022-09-01T20:55:03.222Z,20.90
2022-09-01T20:57:37.909Z,20.90
2022-09-01T21:00:09.297Z,20.86
2022-09-01T21:02:42.971Z,20.86
2022-09-01T21:05:21.221Z,20.84
2022-09-01T21:07:56.369Z,20.81
2022-09-01T21:10:30.832Z,20.76
2022-09-01T21:13:07.495Z,20.74
2022-09-01T21:15:45.595Z,20.71
2022-09-01T21:18:28.823Z,20.65
2022-09-01T21:21:01.376Z,20.65
2022-09-01T21:23:29.246Z,20.59
2022-09-01T21:25:59.209Z,20.59
2022-09-01T21:28:28.276Z,20.58
2022-09-01T21:30:57.862Z,20.56
2022-09-01T21:33:27.278Z,20.49
2022-09-01T21:35:55.581Z,20.49
2022-09-01T21:38:23.221Z,20.47
2022-09-01T21:40:51.974Z,20.44
2022-09-01T21:43:23.209Z,20.36
2022-09-01T21:45:51.126Z,20.37
2022-09-01T21:48:18.991Z,20.37
2022-09-01T21:50:46.921Z,20.36
2022-09-01T21:53:15.126Z,20.34
2022-09-01T21:55:43.213Z,20.32
2022-09-01T21:58:11.101Z,20.27
2022-09-01T22:00:43.244Z,20.28
2022-09-01T22:03:11.905Z,20.25
2022-09-01T22:05:42.186Z,20.22
2022-09-01T22:08:12.092Z,20.20
2022-09-01T22:10:43.977Z,20.19
2022-09-01T22:13:12.399Z,20.17
2022-09-01T22:15:44.408Z,20.17
2022-09-01T22:18:12.343Z,20.11
2022-09-01T22:20:40.625Z,20.10
2022-09-01T22:23:08.612Z,20.08
2022-09-01T22:25:37.005Z,20.07
2022-09-01T22:28:06.417Z,20.07
2022-09-01T22:30:34.480Z,20.03
2022-09-01T22:33:04.280Z,19.99
2022-09-01T22:35:31.907Z,19.97
2022-09-01T22:37:59.573Z,19.94
2022-09-01T22:40:27.295Z,19.92
2022-09-01T22:42:54.964Z,19.92
2022-09-01T22:45:22.624Z,19.90
2022-09-01T22:47:50.424Z,19.87
2022-09-01T22:50:19.442Z,19.86
2022-09-01T22:52:47.042Z,19.83
2022-09-01T22:55:14.721Z,19.81
2022-09-01T22:57:42.296Z,19.79
2022-09-01T23:00:11.410Z,19.78
2022-09-01T23:02:40.743Z,19.75
2022-09-01T23:05:09.318Z,19.73
2022-09-01T23:07:39.742Z,19.69
2022-09-01T23:10:09.363Z,19.68
2022-09-01T23:12:37.038Z,20.18
2022-09-01T23:15:05.521Z,19.89
2022-09-01T23:17:33.097Z,19.77
2022-09-01T23:20:02.275Z,19.70
2022-09-01T23:22:30.005Z,19.64
2022-09-01T23:24:59.165Z,19.59
2022-09-01T23:27:26.673Z,19.38
2022-09-01T23:29:54.109Z,19.23
2022-09-01T23:32:21.631Z,19.13
2022-09-01T23:34:49.313Z,19.23
2022-09-01T23:37:17.207Z,19.23
2022-09-01T23:39:44.924Z,19.04
2022-09-01T23:42:14.995Z,18.92
2022-09-01T23:44:42.572Z,19.03
2022-09-01T23:47:10.447Z,19.07
2022-09-01T23:49:39.421Z,19.06
2022-09-01T23:52:07.095Z,19.06
2022-09-01T23:54:34.841Z,19.62
2022-09-01T23:57:03.142Z,19.75
2022-09-01T23:59:32.133Z,19.81
